Bad Axe, Michigan
Current Conditions -  °F | °C
As of 4:54 AM on Sunday 21 Dec 2014 (Local Time) from KBAX Reporting Station
Clear Clear  
Wind Chill: 15°   Ceiling: Unl
Heat Index: 15°   Visibility: 10mi
Dew Point: 13°   Wind: 0mph
Humidity: 95%   Direction: NA
Pressure: 30.28"   Gusts: NA
Location:  43.8°N, 83°W
Report Text: KBAX 210954Z AUTO 00000KT 10SM CLR M10/M10 A3028 RMK AO2 T10971104
Loading
Personal Weather Stations






























Interactive Weather Map New forecast layout! Learn more

10-Day Weather Forecast

Advertisements
Track Severe Weather on mobile